• Join FlightAware (Why Join?)
  • Login
  • US Flag 
10:36PM EDT


 

Airport Tracker/Info


-or-


 

Live Flight TrackerFlight Track Log ✈ LBQ840 ✈ 18-May-2012 ✈ KMEM - KJWN

Flight Track Log - Related Links

Times and Time Zones

All times are in EDT time to prevent confusion due to time zone crossing. See the LBQ840 flight status page for this flight to view local times or setup timezone preferences in your user account.

Time Position Orientation Groundspeed Altitude Reporting Facility
EDT Latitude Longitude Course Direction KTS MPH feet Rate Location/Type
09:27PM 35.0333 -89.9667 158° South 120 138 800  Level Anchorage Center
09:27PM 35.0000 -89.9500 68° East 134 154 2,300 1,500 Climbing Anchorage Center
09:29PM 35.0167 -89.9000 73° East 158 182 3,800 1,200 Climbing Anchorage Center
09:30PM 35.0333 -89.8333 68° East 183 211 5,100 1,380 Climbing Anchorage Center
09:31PM 35.0500 -89.7833 51° Northeast 190 219 6,500 1,080 Climbing Anchorage Center
09:32PM 35.0833 -89.7333 73° East 199 229 7,300 900 Climbing Anchorage Center
09:32PM 35.1000 -89.6667 69° East 211 243 8,300 1,140 Climbing Anchorage Center
09:33PM 35.1219 -89.5981 75° East 207 238 9,400 1,140 Climbing Memphis Center
09:34PM 35.1381 -89.5267 70° East 244 281 10,400 1,080 Climbing Memphis Center
09:35PM 35.1583 -89.4581 73° East 226 260 11,600 1,200 Climbing Memphis Center
09:36PM 35.1747 -89.3917 72° East 216 249 12,800 1,080 Climbing Memphis Center
09:37PM 35.1908 -89.3306 72° East 206 237 13,800 960 Climbing Memphis Center
09:38PM 35.2089 -89.2642 73° East 206 237 14,800 900 Climbing Memphis Center
09:39PM 35.2250 -89.1981 72° East 206 237 15,700 900 Climbing Memphis Center
09:40PM 35.2433 -89.1292 65° Northeast 206 237 16,600 600 Climbing Memphis Center
09:41PM 35.2697 -89.0600 63° Northeast 218 251 17,000 180 Climbing Memphis Center
09:42PM 35.3000 -88.9883 62° Northeast 229 264 17,000  Level Memphis Center
09:43PM 35.3367 -88.9036 63° Northeast 237 273 17,000  Level Memphis Center
09:44PM 35.3692 -88.8267 63° Northeast 247 284 17,000  Level Memphis Center
09:45PM 35.4017 -88.7497 62° Northeast 247 284 17,000  Level Memphis Center
09:46PM 35.4339 -88.6753 62° Northeast 247 284 17,000  Level Memphis Center
09:47PM 35.4664 -88.6006 61° Northeast 242 278 17,000  Level Memphis Center
09:48PM 35.5006 -88.5261 61° Northeast 247 284 17,000  Level Memphis Center
09:49PM 35.5350 -88.4486 61° Northeast 247 284 17,000 -60 Level Memphis Center
09:50PM 35.5692 -88.3739 64° Northeast 247 284 16,900  Descending Memphis Center
09:51PM 35.5992 -88.2992 62° Northeast 247 284 17,000  Climbing Memphis Center
09:52PM 35.6333 -88.2192 62° Northeast 247 284 17,000  Level Memphis Center
09:53PM 35.6575 -88.1622 61° Northeast 247 284 17,000  Level Memphis Center
09:54PM 35.6975 -88.0742 63° Northeast 247 284 17,000 -180 Level Memphis Center
09:55PM 35.7294 -87.9967 65° Northeast 247 284 16,700 -900 Descending Memphis Center
09:56PM 35.7611 -87.9139 62° Northeast 253 291 15,300 -1,440 Descending Memphis Center
09:57PM 35.7992 -87.8258 62° Northeast 270 311 13,900 -1,380 Descending Memphis Center
09:58PM 35.8369 -87.7375 62° Northeast 275 316 12,600 -1,260 Descending Memphis Center
09:59PM 35.8725 -87.6544 63° Northeast 280 322 11,400 -1,140 Descending Memphis Center
10:00PM 35.9083 -87.5686 64° Northeast 280 322 10,400 -960 Descending Memphis Center
10:01PM 35.9417 -87.4856 63° Northeast 275 316 9,500 -960 Descending Memphis Center
10:02PM 35.9733 -87.4075 64° Northeast 265 305 8,500 -960 Descending Memphis Center
10:03PM 36.0067 -87.3214 66° East 260 299 7,600 -1,080 Descending Memphis Center
10:04PM 36.0339 -87.2461 66° East 260 299 6,400 -1,320 Descending Memphis Center
10:05PM 36.0653 -87.1603 64° Northeast 260 299 5,000 -900 Descending Memphis Center
10:06PM 36.0983 -87.0767 64° Northeast 265 305 4,600 960 Descending Memphis Center
10:07PM 36.1317 -86.9906 62° Northeast 265 305 7,000 1,200 Climbing Memphis Center
10:08PM 36.1669 -86.9067 65° Northeast 265 305 7,000  Level Memphis Center
10:09PM 36.1997 -86.8206 58° Northeast 265 305 7,000  Level Memphis Center
10:10PM 36.2078 -86.8047 360° North 265 305 7,000  Level Memphis Center
10:11PM 36.2078 -86.8047 360° North 265 305 7,000  Level Memphis Center
10:12PM 36.2078 -86.8047 360° North 265 305 7,000  Level Memphis Center
10:13PM 36.2078 -86.8047 360° North 265 305 7,000  Level Memphis Center
10:14PM 36.2078 -86.8047 249° West 265 305 7,000  Level Memphis Center
10:22PM 36.0263 -87.3850 71° East  Level Estimated
10:23PM 36.1667 -86.8833 69° East  Level FlightAware Approximate
10:24PM 36.1899 -86.8101 251° West  Level FlightAware Approximate
10:25PM 36.1771 -86.8574 283° West  Level FlightAware Approximate
10:26PM 36.1912 -86.9356 120° Southeast  Level Estimated
10:27PM 36.1667 -86.8833 120° Southeast  Level FlightAware Approximate